Terminal Aerodrome Forecast
Issued by NWS

Home | Current Version | Previous Version | Graphics & Text | Print | Product List | Glossary On
Versions: 1 2 3 4 5 6 7 8 9 10 11 12 13 14 15 16 17 18 19 20 21 22 23 24
134
FTUS43 KMPX 191806 AAA
TAFRWF
TAF AMD
KRWF 191806Z 1918/2018 15008KT 4SM BR SCT003 BKN070
     FM191930 15008KT 4SM BR BKN009
     FM192200 16009KT 6SM BR OVC006
     FM200400 16007KT 1/2SM FG VV002=

USA.gov is the U.S. government's official web portal to all federal, state and local government web resources and services.